x

South Hecate Strait (46185) Wave Buoy

8:00pm - Wed 27th Aug 2014 All times are PDT. -7 hours from GMT.

  • Sig Wave height 2.0ft
  • Peak Period 17s
  • Wind
    13mph, 16mph gusts
  • Sea Temp 59°f
  • Air Temp 59°f
  • Sea Pressure 1018.9mb
  • South Hecate Strait
  • South Hecate Strait

More Historic Weather Station data

Upgrade to MSW Pro to gain access to the past 30 days of data for over 8000 Wavebouys and Weather Stations around the globe.

Join Pro

Comparision Forecast

View Surf forecast
   
Wed 08/27 8:00pm 2ft 17s 13 16 mph 1018.9mb 59f 59f
7:00pm 2ft 17s 11 16 mph 1019mb 59f 60f
6:00pm 1.6ft 17s 11 13 mph 1019.2mb 58f 60f
5:00pm 2ft 17s 13 16 mph 1019.3mb 59f 60f
4:00pm 2.5ft 18s 13 16 mph 1019.5mb 60f 59f
3:00pm 2.5ft 14s 13 18 mph 1019.6mb 60f 59f
2:00pm 2ft 17s 13 18 mph 1019.7mb 60f 59f
1:00pm 1.6ft 17s 13 16 mph 1019.7mb 60f 58f
12:00pm 2ft 14s 11 13 mph 1019.9mb 60f 58f
11:00am 1.6ft 14s 11 13 mph 1019.9mb 61f 58f
10:00am 1.6ft 14s 11 13 mph 1019.7mb 62f 58f
9:00am 1.6ft 14s 9 11 mph 1019.6mb 61f 58f
8:00am 1.6ft 18s 7
mph
1019.5mb 62f 58f
6:00am 1.6ft 18s 7 9 mph 1018.8mb 62f 59f
5:00am 1.6ft 18s 9
mph
1018.7mb 62f 58f
4:00am 1.6ft 18s 9
mph
1018.6mb 62f 59f
3:00am 1.6ft 14s 9 11 mph 1018.5mb 62f 59f
2:00am 2ft 15s 9 11 mph 1018.7mb 62f 60f
1:00am 2ft 18s 7 9 mph 1018.7mb 61f 59f
12:00am 2ft 18s 7 9 mph 1018.7mb 60f 61f
Tue 08/26 11:00pm 2ft 14s 7 9 mph 1018.8mb 59f 60f
10:00pm 2ft 15s 7
mph
1018.8mb 60f 60f
9:00pm 2ft 18s 7
mph
1018.7mb 60f 60f
8:00pm 1.6ft 18s 7
mph
1018.9mb 60f 61f
7:00pm 1.6ft 18s 4
mph
1018.9mb 60f 60f
6:00pm 1.6ft 15s 7 9 mph 1018.5mb 60f 60f
5:00pm 1.6ft 15s 9 11 mph 1018.6mb 61f 60f
4:00pm 1.6ft 16s 4
mph
1018.9mb 61f 60f
3:00pm 2ft 14s 11 13 mph 1019.2mb 60f 58f
2:00pm 2ft 16s 4 9 mph 1018.9mb 60f 60f
1:00pm 2ft 15s 7 9 mph 1018.6mb 61f 60f
12:00pm 2ft 15s 4
mph
1018.4mb 60f 61f
11:00am 2ft 15s 4 7 mph 1018.1mb 60f 61f
10:00am 2ft 15s 4
mph
1017.9mb 60f 60f
9:00am 2ft 15s 4
mph
1017.6mb 60f 60f
8:00am 2ft 16s 7
mph
1017.4mb 59f 61f
7:00am 2ft 16s 7
mph
1017.1mb 59f 60f
6:00am 1.6ft 16s 4
mph
1016.6mb 59f 61f
5:00am 1.6ft 16s 4
mph
1016.3mb 59f 61f
4:00am 2ft 16s 4
mph
1016.3mb 59f 62f
3:00am 2ft 16s 4
mph
1016.1mb 60f 61f
2:00am 2ft 16s 4
mph
1016mb 59f 62f
1:00am 2ft 17s 2 4 mph 1016.4mb 59f 62f
12:00am 2.5ft 16s 4
mph
1016.2mb 60f 61f
Mon 08/25 11:00pm 2.5ft 16s 7
mph
1016.2mb 60f 61f
10:00pm 2.5ft 16s 7
mph
1016.2mb 59f 61f
9:00pm 2ft 16s 4 7 mph 1016.3mb 60f 61f
8:00pm 1.6ft 16s 4 7 mph 1016.1mb 60f 62f
7:00pm 1.6ft 16s 7
mph
1016.3mb 59f 62f
6:00pm 1.6ft 17s 7 9 mph 1016.1mb 59f 62f
5:00pm 1.6ft 17s 7
mph
1016.4mb 59f 62f
4:00pm 1.6ft 17s 7
mph
1016.4mb 59f 62f
3:00pm 2ft 16s 9
mph
1016.5mb 61f 62f
2:00pm 2ft 16s 4 7 mph 1016.4mb 63f 62f
1:00pm 2ft 16s 4
mph
1016.6mb 62f 62f
12:00pm 1.6ft 17s 2 4 mph 1016.8mb 62f 62f
11:00am 2ft 17s 4
mph
1016.9mb 58f 62f
10:00am 1.6ft 16s 4
mph
1016.9mb 59f 61f
9:00am 1.6ft 17s 2 4 mph 1017.2mb 59f 61f
8:00am 1.6ft 17s 4
mph
1017mb 59f 61f
7:00am 1.6ft 17s 4
mph
1016.8mb 58f 61f
6:00am 1.6ft 17s 2 4 mph 1016.9mb 58f 62f
5:00am 1.6ft 17s 4 7 mph 1016.6mb 60f 62f
4:00am 2ft 17s 4 7 mph 1016.8mb 62f 62f
3:00am 2ft 17s 7
mph
1016.8mb 62f 62f
2:00am 2ft 17s 9 11 mph 1017.1mb 61f 61f
1:00am 2ft 17s 11 16 mph 1017.1mb 60f 61f
12:00am 1.6ft 17s 11 13 mph 1017.4mb 60f 62f
Sun 08/24 11:00pm 2ft 17s 9 11 mph 1017.8mb 60f 60f
10:00pm 2ft 17s 9 11 mph 1017.9mb 60f 59f
9:00pm 2.5ft 17s 11 13 mph 1018.2mb 59f 58f
8:00pm 2.5ft 18s 16 18 mph 1018.5mb 60f 58f
7:00pm 2.5ft 18s 13 16 mph 1018.8mb 60f 60f
6:00pm 2.5ft 5s 13 18 mph 1018.8mb 59f 59f
5:00pm  -   -  16
mph
- - -
4:00pm 3ft 18s 18 22 mph 1018.6mb 59f 59f
3:00pm 3.5ft 18s 18 22 mph 1018.6mb 60f 59f
2:00pm 4ft 18s 20 22 mph 1018.6mb 60f 58f
1:00pm 4.5ft 5s 18 22 mph 1018.9mb 61f 58f
12:00pm 4.5ft 5s 22 27 mph 1018.9mb 61f 58f
11:00am 4ft 5s 22 27 mph 1019.2mb 60f 57f
10:00am 4.5ft 5s 22 27 mph 1019.1mb 60f 57f
9:00am 4ft 5s 22 27 mph 1019.1mb 60f 57f
8:00am 4ft 5s 22 27 mph 1019.2mb 60f 57f
7:00am 3.5ft 5s 25 29 mph 1019.1mb 60f 58f
6:00am 3.5ft 4s 25 29 mph 1019mb 60f 58f
5:00am 3.5ft 4s 22 27 mph 1018.8mb 61f 58f